Time;durP1;ratioP1;P1;durP2;ratioP2;P2;SDS_P1;SDS_P2;PMS_P1;PMS_P2;Temp;Humidity;BMP_temperature;BMP_pressure;BME280_temperature;BME280_humidity;BME280_pressure;Samples;Min_cycle;Max_cycle;Signal;HPM_P1;HPM_P2
2023/05/18 00:02:05;;;;;;;1.67;1.10;;;;;;;6.75;55.49;100876.16;10410865;28;20057;-84
2023/05/18 00:07:08;;;;;;;4.28;1.40;;;;;;;6.57;55.08;100876.66;10409185;28;20042;-84
2023/05/18 00:12:09;;;;;;;1.42;1.20;;;;;;;6.59;55.28;100866.22;10411245;28;20509;-84
2023/05/18 00:17:13;;;;;;;2.58;1.27;;;;;;;6.67;55.46;100869.47;10409654;28;20068;-84
2023/05/18 00:22:18;;;;;;;2.38;1.13;;;;;;;6.65;55.59;100871.25;10404590;28;21447;-83
2023/05/18 00:27:20;;;;;;;6.15;1.30;;;;;;;6.52;55.39;100875.94;10405836;28;20383;-83
2023/05/18 00:32:22;;;;;;;2.05;1.15;;;;;;;6.34;55.83;100873.84;10424492;28;20053;-83
2023/05/18 00:37:25;;;;;;;2.20;1.20;;;;;;;6.49;55.71;100881.22;10407114;28;20132;-83
2023/05/18 00:42:27;;;;;;;4.93;1.30;;;;;;;6.50;55.78;100876.88;10394800;28;20044;-83
2023/05/18 00:47:29;;;;;;;2.40;1.25;;;;;;;6.09;55.78;100873.63;10403238;28;20034;-83
2023/05/18 00:52:31;;;;;;;1.83;1.25;;;;;;;6.10;56.36;100877.91;10406962;28;20042;-83
2023/05/18 00:57:35;;;;;;;1.65;1.13;;;;;;;5.76;56.38;100871.06;10396305;28;20116;-84
2023/05/18 01:02:41;;;;;;;1.73;1.20;;;;;;;5.72;56.81;100867.66;10403314;28;20408;-83
2023/05/18 01:07:43;;;;;;;2.28;1.50;;;;;;;5.51;57.02;100881.19;10395039;28;20044;-83
2023/05/18 01:12:57;;;;;;;4.20;1.55;;;;;;;5.58;58.13;100877.53;10373329;28;20062;-83
2023/05/18 01:18:20;;;;;;;1.48;1.15;;;;;;;5.71;58.48;100873.78;10387050;28;20513;-83
2023/05/18 01:23:56;;;;;;;2.30;1.40;;;;;;;5.83;58.07;100872.59;10356814;28;1175715;-83
2023/05/18 01:29:00;;;;;;;1.85;1.10;;;;;;;5.82;57.42;100876.94;10392912;28;20121;-83
2023/05/18 01:34:02;;;;;;;3.72;1.30;;;;;;;5.79;57.32;100876.16;10406608;28;20053;-83
2023/05/18 01:39:05;;;;;;;2.60;1.25;;;;;;;5.64;57.65;100871.34;10408268;28;20049;-83
2023/05/18 01:44:16;;;;;;;2.08;1.15;;;;;;;5.64;57.69;100882.59;10401255;28;20041;-83
2023/05/18 01:49:20;;;;;;;1.98;1.00;;;;;;;5.61;57.45;100880.09;10396936;28;20050;-83
2023/05/18 01:54:25;;;;;;;2.45;1.20;;;;;;;5.60;57.37;100874.91;10400695;28;20410;-83
2023/05/18 01:59:28;;;;;;;2.05;1.27;;;;;;;5.52;57.44;100877.69;10407422;28;20156;-82
2023/05/18 02:04:30;;;;;;;1.58;1.13;;;;;;;5.31;57.68;100871.25;10410026;28;20049;-83
2023/05/18 02:09:32;;;;;;;2.60;1.23;;;;;;;5.16;58.05;100874.22;10395419;28;20128;-82
2023/05/18 02:14:34;;;;;;;5.15;1.38;;;;;;;5.14;58.19;100875.16;10403679;28;20050;-82
2023/05/18 02:19:36;;;;;;;3.10;1.55;;;;;;;5.30;57.99;100871.31;10384915;28;20084;-83
2023/05/18 02:24:39;;;;;;;2.38;1.30;;;;;;;5.25;57.83;100874.00;10370869;28;20042;-82
2023/05/18 02:29:41;;;;;;;2.33;1.30;;;;;;;4.82;58.03;100875.00;10408188;28;20079;-83
2023/05/18 02:34:45;;;;;;;2.88;1.30;;;;;;;4.60;58.43;100880.63;10384123;28;20049;-83
2023/05/18 02:39:46;;;;;;;1.98;1.30;;;;;;;4.72;58.75;100880.38;10417498;28;20140;-83
2023/05/18 02:44:48;;;;;;;1.67;1.05;;;;;;;4.93;58.67;100883.38;10409404;28;20407;-82
2023/05/18 02:49:50;;;;;;;2.60;1.27;;;;;;;4.91;58.59;100882.56;10405385;28;20473;-82
2023/05/18 02:54:53;;;;;;;1.70;1.13;;;;;;;4.81;58.29;100881.06;10417196;28;20053;-82
2023/05/18 03:00:15;;;;;;;1.75;1.00;;;;;;;4.58;58.38;100877.22;10418169;28;20053;-82
2023/05/18 03:05:22;;;;;;;2.00;1.17;;;;;;;4.57;58.61;100882.44;10373735;28;20038;-82
2023/05/18 03:10:24;;;;;;;0.98;0.98;;;;;;;4.61;58.76;100881.50;10387607;28;20132;-82
2023/05/18 03:15:30;;;;;;;1.83;1.00;;;;;;;4.59;58.33;100881.53;10395409;28;20123;-82
2023/05/18 03:20:34;;;;;;;3.28;1.20;;;;;;;4.55;59.02;100879.88;10411195;28;20507;-82
2023/05/18 03:25:36;;;;;;;0.93;0.90;;;;;;;4.54;58.90;100883.34;10411259;28;20085;-85
2023/05/18 03:31:08;;;;;;;1.88;1.10;;;;;;;4.33;59.84;100891.53;10410904;28;20060;-84
2023/05/18 03:36:11;;;;;;;1.57;1.10;;;;;;;4.37;59.06;100893.16;10405194;28;20050;-85
2023/05/18 03:41:13;;;;;;;2.17;1.30;;;;;;;4.30;59.01;100891.59;10380568;28;20476;-84
2023/05/18 03:46:15;;;;;;;1.40;1.08;;;;;;;4.32;59.32;100891.56;10404287;28;20521;-85
2023/05/18 03:51:19;;;;;;;1.50;1.10;;;;;;;4.37;59.57;100892.34;10374037;28;20108;-84
2023/05/18 03:56:22;;;;;;;1.50;1.15;;;;;;;4.39;59.59;100888.81;10394813;28;20136;-84
2023/05/18 04:01:24;;;;;;;1.63;1.00;;;;;;;4.38;59.34;100891.44;10374403;28;20112;-84
2023/05/18 04:06:25;;;;;;;1.27;1.13;;;;;;;4.70;58.84;100887.31;10406296;28;20033;-84
2023/05/18 04:11:27;;;;;;;2.47;1.27;;;;;;;4.82;58.57;100890.56;10395725;28;20049;-84
2023/05/18 04:16:29;;;;;;;4.35;1.40;;;;;;;4.76;58.20;100901.88;10406865;28;20387;-84
2023/05/18 04:21:34;;;;;;;3.40;1.45;;;;;;;4.93;58.64;100893.75;10409039;28;20041;-84
2023/05/18 04:26:37;;;;;;;1.85;1.30;;;;;;;5.72;57.92;100897.97;10390004;28;20041;-84
2023/05/18 04:31:43;;;;;;;2.25;1.20;;;;;;;8.15;54.57;100886.38;10409586;28;20045;-85
2023/05/18 04:36:45;;;;;;;1.40;1.17;;;;;;;10.48;50.53;100883.19;10400908;28;20495;-85
2023/05/18 04:41:49;;;;;;;1.88;1.20;;;;;;;12.28;47.78;100880.59;10381550;28;20050;-85
2023/05/18 04:46:51;;;;;;;1.80;1.20;;;;;;;13.88;45.02;100869.03;10405703;28;20049;-85
2023/05/18 04:51:55;;;;;;;2.20;1.27;;;;;;;15.10;43.25;100868.56;10406912;28;20487;-85
2023/05/18 04:56:58;;;;;;;1.98;1.40;;;;;;;15.61;42.24;100870.50;10409796;28;20041;-85
2023/05/18 05:02:00;;;;;;;5.10;1.30;;;;;;;16.70;40.28;100868.31;10408222;28;20053;-84
2023/05/18 05:07:02;;;;;;;1.25;1.10;;;;;;;17.24;39.33;100864.34;10375378;28;20049;-84
2023/05/18 05:12:04;;;;;;;2.38;1.20;;;;;;;17.01;38.42;100859.91;10377103;28;20054;-84
2023/05/18 05:17:06;;;;;;;1.73;1.10;;;;;;;15.53;40.13;100870.13;10378110;28;20038;-85
2023/05/18 05:22:08;;;;;;;1.85;1.05;;;;;;;14.55;41.26;100882.53;10400127;28;20042;-85
2023/05/18 05:27:12;;;;;;;1.85;1.20;;;;;;;13.45;41.19;100880.34;10381090;28;20049;-84
2023/05/18 05:32:15;;;;;;;1.88;1.30;;;;;;;12.04;43.41;100890.53;10399606;28;20124;-84
2023/05/18 05:37:25;;;;;;;2.45;1.33;;;;;;;11.01;45.17;100894.69;10388172;28;20038;-83
2023/05/18 05:42:30;;;;;;;2.33;1.13;;;;;;;10.25;46.20;100902.50;10401328;28;20499;-84
2023/05/18 05:47:38;;;;;;;1.25;1.10;;;;;;;10.08;47.12;100899.75;10388275;28;20045;-85
2023/05/18 05:52:41;;;;;;;1.63;1.10;;;;;;;10.12;47.26;100897.84;10390745;28;20562;-84
2023/05/18 05:57:43;;;;;;;3.60;1.30;;;;;;;9.92;46.72;100898.69;10365340;28;20537;-84
2023/05/18 06:02:50;;;;;;;2.60;1.40;;;;;;;9.54;47.32;100897.59;10367808;28;20388;-84
2023/05/18 06:08:27;;;;;;;3.10;1.30;;;;;;;9.51;47.27;100909.94;10381352;28;20041;-83
2023/05/18 06:13:31;;;;;;;2.63;1.73;;;;;;;9.10;47.66;100914.16;10396635;28;20116;-83
2023/05/18 06:18:56;;;;;;;2.30;1.35;;;;;;;9.31;48.51;100913.34;10402523;28;20045;-84
2023/05/18 06:24:00;;;;;;;3.42;1.30;;;;;;;8.92;48.10;100920.06;10409932;28;20053;-84
2023/05/18 06:29:16;;;;;;;4.28;1.65;;;;;;;9.24;48.75;100918.88;10405678;28;20046;-84
2023/05/18 06:34:37;;;;;;;2.95;1.33;;;;;;;9.42;47.73;100926.81;10410108;28;20499;-84
2023/05/18 06:39:39;;;;;;;6.25;1.15;;;;;;;9.67;47.32;100918.88;10384459;28;20525;-82
2023/05/18 06:44:42;;;;;;;5.00;1.38;;;;;;;9.67;47.47;100921.50;10409567;28;20045;-82
2023/05/18 06:49:50;;;;;;;2.08;1.10;;;;;;;9.82;48.15;100922.66;10405280;28;20049;-82
2023/05/18 06:54:52;;;;;;;2.30;1.05;;;;;;;9.93;47.52;100918.66;10406101;28;20042;-81
2023/05/18 06:59:54;;;;;;;3.55;1.20;;;;;;;10.16;46.72;100920.31;10413238;28;20057;-82
2023/05/18 07:04:56;;;;;;;1.90;1.13;;;;;;;10.39;46.46;100914.97;10399194;28;20042;-82
2023/05/18 07:09:58;;;;;;;3.17;1.30;;;;;;;10.67;46.67;100919.81;10386962;28;20041;-82
2023/05/18 07:15:00;;;;;;;3.00;1.30;;;;;;;10.86;45.80;100916.34;10413813;28;20131;-82
2023/05/18 07:20:04;;;;;;;4.45;1.23;;;;;;;11.08;46.33;100916.22;10385838;28;20042;-82
2023/05/18 07:25:07;;;;;;;4.57;1.30;;;;;;;11.31;45.30;100918.63;10402570;28;20053;-81
2023/05/18 07:30:09;;;;;;;2.22;1.17;;;;;;;12.24;44.28;100907.00;10401451;28;20425;-82
2023/05/18 07:35:11;;;;;;;4.43;1.42;;;;;;;13.31;43.23;100894.19;10398281;28;20030;-82
2023/05/18 07:40:13;;;;;;;2.35;1.30;;;;;;;15.13;41.13;100884.16;10409109;28;20422;-82
2023/05/18 07:45:15;;;;;;;2.15;1.23;;;;;;;16.12;39.25;100897.84;10400436;28;20056;-82
2023/05/18 07:50:17;;;;;;;2.00;1.40;;;;;;;16.00;38.47;100888.09;10388037;28;20045;-82
2023/05/18 07:55:19;;;;;;;3.30;1.30;;;;;;;17.03;38.59;100880.00;10404269;28;20037;-81
2023/05/18 08:00:22;;;;;;;4.30;1.40;;;;;;;17.04;36.96;100872.88;10410122;28;20584;-81
2023/05/18 08:05:24;;;;;;;2.88;1.05;;;;;;;16.90;36.83;100867.72;10408859;28;20052;-82
2023/05/18 08:10:26;;;;;;;3.00;1.48;;;;;;;16.77;36.43;100870.41;10410014;28;20042;-82
2023/05/18 08:15:28;;;;;;;3.20;1.33;;;;;;;16.87;36.21;100870.59;10385549;28;20069;-82
2023/05/18 08:20:30;;;;;;;2.60;1.15;;;;;;;17.29;36.13;100859.59;10370455;28;20065;-82
2023/05/18 08:25:32;;;;;;;2.08;1.30;;;;;;;17.96;34.37;100855.44;10381238;28;20483;-82
2023/05/18 08:30:34;;;;;;;2.50;1.40;;;;;;;17.96;35.18;100854.59;10392332;28;20049;-82
2023/05/18 08:35:36;;;;;;;3.85;1.42;;;;;;;18.72;32.66;100847.75;10395688;28;20040;-82
2023/05/18 08:41:01;;;;;;;2.45;1.30;;;;;;;18.73;32.77;100844.13;10409217;28;20669;-83
2023/05/18 08:46:12;;;;;;;1.90;1.30;;;;;;;19.29;32.72;100844.91;10409602;28;20491;-83
2023/05/18 08:51:19;;;;;;;2.78;1.23;;;;;;;19.38;33.14;100852.97;10408861;28;20120;-79
2023/05/18 08:56:25;;;;;;;2.63;1.25;;;;;;;19.34;32.06;100848.88;10371879;28;20050;-79
2023/05/18 09:01:27;;;;;;;2.35;1.20;;;;;;;19.16;31.53;100844.22;10365444;28;20073;-79
2023/05/18 09:06:34;;;;;;;2.35;1.10;;;;;;;18.97;31.95;100839.50;10405350;28;20061;-79
2023/05/18 09:11:38;;;;;;;2.15;1.02;;;;;;;19.13;33.29;100834.72;10406631;28;20387;-79
2023/05/18 09:16:40;;;;;;;3.15;1.27;;;;;;;19.00;32.80;100831.34;10367029;28;20124;-79
2023/05/18 09:21:42;;;;;;;4.43;1.27;;;;;;;18.30;32.13;100827.28;10367652;28;20056;-79
2023/05/18 09:26:45;;;;;;;2.50;1.08;;;;;;;18.58;31.32;100819.69;10394395;28;20133;-79
2023/05/18 09:31:47;;;;;;;1.67;1.10;;;;;;;18.83;31.28;100815.09;10405433;28;20128;-79
2023/05/18 09:36:51;;;;;;;2.40;1.15;;;;;;;18.35;28.57;100820.66;10365830;28;20084;-79
2023/05/18 09:41:56;;;;;;;2.60;0.90;;;;;;;18.32;30.83;100822.72;10370109;28;20054;-79
2023/05/18 09:46:58;;;;;;;1.42;1.08;;;;;;;17.91;31.18;100814.41;10365099;28;20045;-79
2023/05/18 09:52:00;;;;;;;2.13;1.10;;;;;;;17.49;30.80;100811.41;10380548;28;20092;-80
2023/05/18 09:57:03;;;;;;;2.40;1.10;;;;;;;16.88;31.34;100814.16;10414638;28;20152;-79
2023/05/18 10:02:14;;;;;;;2.28;1.20;;;;;;;18.04;30.99;100812.50;10401815;28;20393;-79
2023/05/18 10:07:16;;;;;;;3.35;0.93;;;;;;;18.10;30.18;100807.59;10374109;28;20050;-79
2023/05/18 10:12:21;;;;;;;3.30;1.33;;;;;;;18.93;30.16;100792.19;10383135;28;20067;-79
2023/05/18 10:17:25;;;;;;;1.45;1.00;;;;;;;19.42;29.03;100796.03;10414612;28;20039;-80
2023/05/18 10:22:27;;;;;;;1.52;1.00;;;;;;;18.26;29.93;100788.75;10400395;28;20045;-79
2023/05/18 10:27:33;;;;;;;1.92;1.15;;;;;;;17.67;29.58;100788.84;10372196;28;20052;-79
2023/05/18 10:32:36;;;;;;;1.60;1.02;;;;;;;17.44;29.76;100792.41;10387686;28;20037;-79
2023/05/18 10:37:40;;;;;;;3.42;1.20;;;;;;;17.66;30.02;100771.31;10413686;28;20438;-79
2023/05/18 10:42:44;;;;;;;3.28;1.27;;;;;;;17.83;31.13;100784.06;10379459;28;20356;-79
2023/05/18 10:47:47;;;;;;;1.88;1.08;;;;;;;17.64;31.84;100773.22;10405185;28;20071;-79
2023/05/18 10:52:50;;;;;;;2.78;1.20;;;;;;;17.75;31.64;100781.19;10412151;28;20121;-79
2023/05/18 10:57:57;;;;;;;2.47;1.35;;;;;;;17.15;31.12;100779.59;10410711;28;20048;-78
2023/05/18 11:03:00;;;;;;;2.25;1.15;;;;;;;16.82;31.98;100767.91;10410833;28;20045;-79
2023/05/18 11:08:04;;;;;;;3.47;1.30;;;;;;;17.11;31.78;100768.41;10410789;28;20045;-79
2023/05/18 11:13:06;;;;;;;2.80;1.00;;;;;;;17.31;32.10;100764.28;10410924;28;20041;-79
2023/05/18 11:18:12;;;;;;;2.78;1.27;;;;;;;17.64;31.34;100753.84;10410903;28;20475;-78
2023/05/18 11:23:17;;;;;;;1.90;1.10;;;;;;;17.40;31.86;100751.28;10388462;28;20665;-78
2023/05/18 11:28:21;;;;;;;4.18;1.13;;;;;;;16.80;31.51;100753.09;10369016;28;20033;-78
2023/05/18 11:33:26;;;;;;;2.92;1.20;;;;;;;16.23;31.41;100753.63;10391935;28;20072;-78
2023/05/18 11:38:47;;;;;;;2.72;1.00;;;;;;;16.97;31.22;100742.16;10410746;28;20048;-78
2023/05/18 11:44:02;;;;;;;1.90;1.10;;;;;;;17.27;32.65;100742.53;10382870;28;20479;-78
2023/05/18 11:49:06;;;;;;;3.95;1.60;;;;;;;17.49;31.21;100739.13;10369709;28;20073;-78
2023/05/18 11:54:09;;;;;;;1.85;1.20;;;;;;;17.11;32.66;100741.97;10404435;28;20045;-79
2023/05/18 11:59:13;;;;;;;3.70;1.27;;;;;;;17.44;32.60;100728.94;10408812;28;20080;-79
2023/05/18 12:04:15;;;;;;;3.20;1.40;;;;;;;17.15;31.71;100722.28;10407858;28;20132;-79
2023/05/18 12:09:18;;;;;;;3.75;1.25;;;;;;;17.27;32.02;100731.09;10407366;28;20540;-78
2023/05/18 12:14:21;;;;;;;5.55;1.20;;;;;;;17.41;31.27;100723.00;10370628;28;20479;-78
2023/05/18 12:19:23;;;;;;;2.70;1.30;;;;;;;17.59;32.06;100716.31;10384343;28;20522;-78
2023/05/18 12:24:25;;;;;;;2.75;1.20;;;;;;;17.55;31.67;100712.22;10400833;28;21002;-79
2023/05/18 12:29:27;;;;;;;2.20;1.30;;;;;;;17.53;32.45;100708.84;10407743;28;20483;-79
2023/05/18 12:34:29;;;;;;;2.90;1.17;;;;;;;17.42;32.24;100700.91;10406570;28;20402;-79
2023/05/18 12:39:32;;;;;;;2.47;1.15;;;;;;;17.07;31.55;100702.66;10408146;28;20072;-78
2023/05/18 12:44:34;;;;;;;2.17;1.30;;;;;;;16.77;31.39;100705.78;10404457;28;20426;-79
2023/05/18 12:49:38;;;;;;;2.47;1.13;;;;;;;16.76;31.43;100681.16;10390511;28;20045;-78
2023/05/18 12:54:48;;;;;;;1.98;1.10;;;;;;;16.90;30.59;100683.63;10395667;28;20046;-78
2023/05/18 12:59:53;;;;;;;1.55;1.00;;;;;;;17.20;31.79;100688.41;10393195;28;20052;-78
2023/05/18 13:05:10;;;;;;;3.70;1.27;;;;;;;17.94;30.38;100674.75;10377130;28;20103;-78
2023/05/18 13:10:16;;;;;;;2.22;1.23;;;;;;;18.05;30.14;100673.91;10406417;28;20263;-78
2023/05/18 13:15:22;;;;;;;2.40;1.20;;;;;;;17.83;30.53;100674.75;10383734;28;20038;-78
2023/05/18 13:20:55;;;;;;;2.92;1.30;;;;;;;17.89;31.48;100662.84;10383019;28;20051;-78
2023/05/18 13:25:57;;;;;;;1.83;1.20;;;;;;;17.70;31.07;100659.00;10367500;28;20088;-78
2023/05/18 13:30:59;;;;;;;2.42;1.30;;;;;;;17.72;32.16;100649.13;10392005;28;20076;-79
2023/05/18 13:36:02;;;;;;;2.63;1.10;;;;;;;18.07;29.67;100661.41;10389074;28;20137;-79
2023/05/18 13:41:04;;;;;;;3.08;1.50;;;;;;;17.98;30.98;100648.88;10381504;28;20045;-79
2023/05/18 13:46:07;;;;;;;1.80;1.10;;;;;;;17.83;31.66;100640.38;10381206;28;20044;-79
2023/05/18 13:51:09;;;;;;;1.85;1.08;;;;;;;18.15;31.83;100635.16;10383857;28;20737;-79
2023/05/18 13:56:11;;;;;;;2.13;1.10;;;;;;;18.03;31.66;100631.69;10383893;28;20099;-79
2023/05/18 14:01:13;;;;;;;2.80;1.33;;;;;;;17.85;31.59;100618.09;10380879;28;20129;-79
2023/05/18 14:06:14;;;;;;;2.75;1.40;;;;;;;17.71;30.33;100620.97;10364333;28;20391;-78
2023/05/18 14:11:16;;;;;;;4.38;1.30;;;;;;;18.08;31.18;100618.06;10397289;28;20055;-78
2023/05/18 14:16:18;;;;;;;3.13;1.30;;;;;;;18.09;31.09;100611.81;10395587;28;20053;-78
2023/05/18 14:21:20;;;;;;;1.92;1.17;;;;;;;18.23;30.65;100606.28;10403943;28;20045;-78
2023/05/18 14:26:22;;;;;;;3.03;1.30;;;;;;;18.06;30.42;100607.59;10382768;28;20053;-79
2023/05/18 14:31:24;;;;;;;1.80;1.00;;;;;;;17.92;30.65;100596.44;10384297;28;20057;-78
2023/05/18 14:36:26;;;;;;;2.13;1.05;;;;;;;17.93;30.81;100598.13;10378523;28;20096;-78
2023/05/18 14:41:28;;;;;;;1.60;1.20;;;;;;;18.05;31.31;100591.84;10411952;28;20041;-79
2023/05/18 14:46:30;;;;;;;2.13;1.10;;;;;;;17.76;29.83;100602.09;10402433;28;20048;-79
2023/05/18 14:51:32;;;;;;;3.90;1.35;;;;;;;17.77;29.75;100593.22;10395120;28;20400;-78
2023/05/18 14:56:34;;;;;;;1.75;1.10;;;;;;;17.70;30.00;100589.38;10408437;28;20048;-78
2023/05/18 15:01:36;;;;;;;2.33;1.33;;;;;;;17.94;30.70;100587.41;10410072;28;20040;-79
2023/05/18 15:06:38;;;;;;;1.65;1.00;;;;;;;18.03;30.18;100581.41;10380253;28;20051;-79
2023/05/18 15:11:40;;;;;;;2.47;1.05;;;;;;;18.01;31.09;100585.13;10381475;28;20049;-79
2023/05/18 15:16:42;;;;;;;2.28;1.25;;;;;;;18.34;30.90;100593.84;10374176;28;20045;-80
2023/05/18 15:21:44;;;;;;;2.40;1.23;;;;;;;18.41;30.37;100578.31;10385398;28;20479;-78
2023/05/18 15:26:46;;;;;;;2.53;1.13;;;;;;;18.09;30.31;100586.19;10402907;28;20045;-78
2023/05/18 15:31:49;;;;;;;3.13;1.10;;;;;;;18.05;30.49;100581.25;10375807;28;20053;-78
2023/05/18 15:36:52;;;;;;;2.67;1.20;;;;;;;17.96;30.67;100580.19;10364865;28;20584;-78
2023/05/18 15:41:55;;;;;;;1.63;1.08;;;;;;;18.04;30.68;100580.41;10383797;28;20053;-78
2023/05/18 15:46:57;;;;;;;2.10;0.80;;;;;;;18.11;30.46;100573.69;10402905;28;20056;-78
2023/05/18 15:51:59;;;;;;;1.33;0.93;;;;;;;17.83;29.97;100569.75;10389421;28;20162;-78
2023/05/18 15:57:02;;;;;;;1.88;1.10;;;;;;;17.66;30.05;100564.97;10405419;28;20038;-78
2023/05/18 16:02:04;;;;;;;3.00;1.20;;;;;;;17.72;30.40;100564.47;10370816;28;20266;-79
2023/05/18 16:07:06;;;;;;;1.88;1.13;;;;;;;17.72;30.46;100567.13;10376833;28;20056;-79
2023/05/18 16:12:08;;;;;;;1.73;1.02;;;;;;;17.77;30.67;100559.66;10375297;28;20057;-80
2023/05/18 16:17:12;;;;;;;2.45;1.27;;;;;;;17.87;30.91;100565.06;10362489;28;20049;-79
2023/05/18 16:22:14;;;;;;;1.80;1.27;;;;;;;17.84;30.71;100562.66;10383768;28;20514;-79
2023/05/18 16:27:17;;;;;;;2.42;1.10;;;;;;;17.66;30.98;100562.31;10390443;28;20053;-78
2023/05/18 16:32:19;;;;;;;2.08;1.17;;;;;;;17.90;31.27;100562.16;10386395;28;20053;-79
2023/05/18 16:37:21;;;;;;;3.15;1.15;;;;;;;17.48;31.18;100571.69;10371829;28;20042;-78
2023/05/18 16:42:24;;;;;;;1.92;1.00;;;;;;;17.46;30.95;100567.50;10394795;28;20041;-79
2023/05/18 16:47:27;;;;;;;1.77;1.20;;;;;;;17.29;31.89;100571.41;10379725;28;20718;-80
2023/05/18 16:52:29;;;;;;;3.55;1.30;;;;;;;17.38;32.07;100564.59;10371398;28;20045;-79
2023/05/18 16:57:32;;;;;;;1.55;1.05;;;;;;;17.33;31.84;100574.66;10388714;28;20065;-80
2023/05/18 17:02:35;;;;;;;1.83;1.08;;;;;;;17.27;31.81;100569.84;10383754;28;20919;-80
2023/05/18 17:07:39;;;;;;;1.77;1.10;;;;;;;17.35;31.78;100572.75;10389265;28;20104;-80
2023/05/18 17:12:42;;;;;;;1.95;1.08;;;;;;;17.27;32.08;100583.06;10389685;28;20332;-80
2023/05/18 17:17:46;;;;;;;3.58;1.30;;;;;;;17.13;31.43;100577.97;10386094;28;20088;-80
2023/05/18 17:22:48;;;;;;;2.15;1.10;;;;;;;16.79;31.87;100577.06;10382333;28;20073;-80
2023/05/18 17:27:50;;;;;;;4.30;1.25;;;;;;;16.79;32.21;100577.06;10381393;28;20414;-80
2023/05/18 17:32:53;;;;;;;1.83;1.20;;;;;;;16.65;31.91;100577.28;10376371;28;20073;-80
2023/05/18 17:37:56;;;;;;;2.35;0.95;;;;;;;16.58;32.17;100583.94;10387955;28;20118;-80
2023/05/18 17:42:58;;;;;;;1.65;1.13;;;;;;;16.56;32.11;100588.50;10381526;28;20045;-80
2023/05/18 17:48:00;;;;;;;2.22;1.08;;;;;;;16.34;32.42;100585.72;10374732;28;20073;-80
2023/05/18 17:53:03;;;;;;;3.33;1.30;;;;;;;16.32;32.93;100583.22;10375421;28;20458;-81
2023/05/18 17:58:06;;;;;;;1.80;1.10;;;;;;;16.20;32.54;100582.28;10384549;28;20073;-81
2023/05/18 18:03:13;;;;;;;1.00;0.80;;;;;;;16.20;32.32;100587.56;10377935;28;20152;-81
2023/05/18 18:08:16;;;;;;;1.77;1.00;;;;;;;16.13;32.46;100585.50;10386351;28;20052;-80
2023/05/18 18:13:18;;;;;;;1.77;1.00;;;;;;;16.08;32.52;100585.81;10389413;28;20049;-80
2023/05/18 18:18:22;;;;;;;1.83;1.10;;;;;;;16.06;33.25;100592.19;10394174;28;20095;-80
2023/05/18 18:23:24;;;;;;;2.33;1.25;;;;;;;15.78;33.50;100593.28;10381220;28;20046;-80
2023/05/18 18:28:28;;;;;;;1.80;1.10;;;;;;;15.57;33.50;100597.41;10392415;28;20569;-80
2023/05/18 18:33:31;;;;;;;3.45;1.40;;;;;;;15.54;33.98;100595.00;10402037;28;20037;-80
2023/05/18 18:38:34;;;;;;;2.55;1.17;;;;;;;15.41;34.39;100599.41;10384682;28;20066;-80
2023/05/18 18:43:38;;;;;;;1.90;0.98;;;;;;;15.32;34.63;100606.19;10373380;28;20083;-80
2023/05/18 18:48:42;;;;;;;1.70;1.10;;;;;;;14.95;35.05;100617.50;10408779;28;20041;-80
2023/05/18 18:53:45;;;;;;;3.45;1.30;;;;;;;14.84;35.44;100624.44;10397138;28;20041;-81
2023/05/18 18:58:47;;;;;;;4.65;1.20;;;;;;;14.72;35.94;100630.50;10393042;28;20037;-78
2023/05/18 19:03:51;;;;;;;2.10;1.23;;;;;;;14.57;36.69;100632.38;10384437;28;20038;-78
2023/05/18 19:08:53;;;;;;;3.17;1.20;;;;;;;14.36;36.56;100636.34;10384046;28;20042;-77
2023/05/18 19:13:55;;;;;;;3.03;1.17;;;;;;;14.23;37.01;100644.16;10375632;28;20049;-77
2023/05/18 19:18:58;;;;;;;3.55;1.45;;;;;;;14.09;37.71;100657.34;10379347;28;20698;-77
2023/05/18 19:24:02;;;;;;;3.58;1.50;;;;;;;13.80;38.36;100660.09;10399663;28;20108;-77
2023/05/18 19:29:04;;;;;;;4.15;1.30;;;;;;;13.63;38.57;100674.28;10384450;28;20037;-77
2023/05/18 19:34:06;;;;;;;2.00;1.25;;;;;;;13.54;39.13;100674.81;10384194;28;20058;-77
2023/05/18 19:39:08;;;;;;;5.40;1.17;;;;;;;13.44;39.57;100679.78;10397741;28;20045;-78
2023/05/18 19:44:11;;;;;;;1.45;1.10;;;;;;;13.22;39.39;100683.75;10385377;28;20045;-77
2023/05/18 19:49:13;;;;;;;2.53;1.17;;;;;;;13.10;39.67;100692.34;10379918;28;20074;-77
2023/05/18 19:54:15;;;;;;;2.08;1.20;;;;;;;13.06;39.83;100689.06;10382218;28;20055;-77
2023/05/18 19:59:17;;;;;;;2.70;1.20;;;;;;;12.95;40.31;100694.91;10386667;28;20044;-78
2023/05/18 20:04:22;;;;;;;4.13;1.30;;;;;;;12.89;40.50;100702.28;10381887;28;20124;-77
2023/05/18 20:09:25;;;;;;;1.75;1.15;;;;;;;12.73;40.44;100699.69;10402320;28;20045;-77
2023/05/18 20:14:27;;;;;;;4.38;1.50;;;;;;;12.56;40.98;100706.81;10373700;28;20501;-78
2023/05/18 20:19:29;;;;;;;2.72;1.33;;;;;;;12.44;41.23;100704.84;10386207;28;20037;-78
2023/05/18 20:24:32;;;;;;;3.10;1.30;;;;;;;12.31;41.33;100709.97;10383382;28;20539;-78
2023/05/18 20:29:33;;;;;;;4.70;1.42;;;;;;;12.19;41.83;100707.13;10387489;28;20057;-77
2023/05/18 20:34:35;;;;;;;1.77;1.00;;;;;;;12.09;42.23;100710.22;10379002;28;20060;-77
2023/05/18 20:39:39;;;;;;;3.20;1.38;;;;;;;11.96;42.46;100718.81;10396466;28;20569;-77
2023/05/18 20:44:41;;;;;;;1.50;1.10;;;;;;;11.89;42.57;100725.31;10387077;28;20049;-77
2023/05/18 20:49:43;;;;;;;2.63;1.15;;;;;;;11.75;43.19;100735.66;10388688;28;20044;-77
2023/05/18 20:54:45;;;;;;;3.00;1.38;;;;;;;11.74;43.38;100736.59;10369207;28;20574;-77
2023/05/18 20:59:47;;;;;;;3.97;1.45;;;;;;;11.68;43.59;100742.16;10378120;28;20042;-78
2023/05/18 21:04:49;;;;;;;4.45;1.50;;;;;;;11.57;44.31;100747.94;10395389;28;20053;-77
2023/05/18 21:09:51;;;;;;;2.30;1.30;;;;;;;11.33;44.61;100749.19;10394011;28;20410;-78
2023/05/18 21:14:53;;;;;;;2.42;1.50;;;;;;;11.29;44.92;100748.47;10391107;28;20518;-77
2023/05/18 21:19:55;;;;;;;4.40;1.40;;;;;;;11.28;45.17;100746.78;10395948;28;20125;-77
2023/05/18 21:24:57;;;;;;;3.47;1.30;;;;;;;11.15;45.36;100750.09;10397338;28;20053;-77
2023/05/18 21:29:59;;;;;;;2.50;1.52;;;;;;;10.69;45.95;100746.19;10379277;28;20041;-77
2023/05/18 21:35:01;;;;;;;3.13;1.33;;;;;;;10.59;45.80;100750.16;10397246;28;20045;-77
2023/05/18 21:40:03;;;;;;;4.35;1.60;;;;;;;10.56;46.18;100750.31;10400595;28;20049;-77
2023/05/18 21:45:06;;;;;;;5.18;1.33;;;;;;;10.57;46.25;100751.13;10381036;28;20081;-77
2023/05/18 21:50:08;;;;;;;2.65;1.38;;;;;;;10.48;46.57;100755.06;10387710;28;20128;-78
2023/05/18 21:55:10;;;;;;;3.47;1.42;;;;;;;10.23;46.90;100760.56;10403800;28;20041;-77
2023/05/18 22:00:13;;;;;;;1.90;1.05;;;;;;;10.10;46.91;100755.91;10410394;28;20049;-77
2023/05/18 22:05:14;;;;;;;3.10;1.20;;;;;;;10.08;47.24;100760.38;10394687;28;20073;-77
2023/05/18 22:10:17;;;;;;;1.95;1.10;;;;;;;10.14;47.32;100758.34;10402178;28;20070;-77
2023/05/18 22:15:20;;;;;;;2.78;1.25;;;;;;;10.17;47.54;100762.59;10393433;28;20485;-78
2023/05/18 22:20:23;;;;;;;2.65;1.45;;;;;;;10.12;47.91;100759.31;10376059;28;20030;-77
2023/05/18 22:25:25;;;;;;;2.58;1.50;;;;;;;10.03;48.44;100759.75;10405667;28;20237;-78
2023/05/18 22:30:27;;;;;;;3.28;1.42;;;;;;;9.94;48.63;100758.38;10381189;28;20045;-77
2023/05/18 22:35:29;;;;;;;2.80;1.40;;;;;;;9.91;48.84;100744.59;10410070;28;20425;-78
2023/05/18 22:40:31;;;;;;;3.35;1.65;;;;;;;9.62;49.49;100749.31;10408541;28;20048;-77
2023/05/18 22:45:33;;;;;;;3.22;1.40;;;;;;;9.61;49.53;100752.81;10401472;28;20475;-77
2023/05/18 22:50:35;;;;;;;1.88;1.30;;;;;;;9.46;50.23;100757.84;10396528;28;20065;-77
2023/05/18 22:55:37;;;;;;;2.60;1.40;;;;;;;9.39;50.56;100749.41;10382982;28;20046;-77
2023/05/18 23:00:39;;;;;;;2.33;1.20;;;;;;;9.28;50.88;100748.19;10390336;28;20065;-77
2023/05/18 23:05:44;;;;;;;1.80;1.30;;;;;;;9.17;51.06;100748.63;10388285;28;20459;-78
2023/05/18 23:10:46;;;;;;;2.20;1.40;;;;;;;9.08;51.61;100746.38;10401250;28;20045;-78
2023/05/18 23:15:48;;;;;;;3.55;1.40;;;;;;;8.99;51.71;100746.75;10389744;28;20041;-77
2023/05/18 23:20:54;;;;;;;3.13;1.50;;;;;;;8.93;52.02;100752.22;10405789;28;20037;-78